sensor_id;sensor_type;location;lat;lon;timestamp;P1;durP1;ratioP1;P2;durP2;ratioP2
4971;SDS011;2501;51.214;6.768;2023-05-09T00:01:06;14.13;;;11.63;;
4971;SDS011;2501;51.214;6.768;2023-05-09T00:03:37;19.10;;;12.80;;
4971;SDS011;2501;51.214;6.768;2023-05-09T00:06:06;15.82;;;12.55;;
4971;SDS011;2501;51.214;6.768;2023-05-09T00:08:35;21.15;;;12.75;;
4971;SDS011;2501;51.214;6.768;2023-05-09T00:11:05;17.92;;;12.57;;
4971;SDS011;2501;51.214;6.768;2023-05-09T00:13:33;20.10;;;12.73;;
4971;SDS011;2501;51.214;6.768;2023-05-09T00:16:05;17.42;;;13.50;;
4971;SDS011;2501;51.214;6.768;2023-05-09T00:18:34;15.55;;;13.38;;
4971;SDS011;2501;51.214;6.768;2023-05-09T00:21:06;19.00;;;13.63;;
4971;SDS011;2501;51.214;6.768;2023-05-09T00:23:35;24.80;;;14.00;;
4971;SDS011;2501;51.214;6.768;2023-05-09T00:26:04;17.08;;;14.02;;
4971;SDS011;2501;51.214;6.768;2023-05-09T00:28:33;18.63;;;13.47;;
4971;SDS011;2501;51.214;6.768;2023-05-09T00:31:02;18.50;;;15.17;;
4971;SDS011;2501;51.214;6.768;2023-05-09T00:33:33;22.45;;;14.80;;
4971;SDS011;2501;51.214;6.768;2023-05-09T00:36:01;22.23;;;15.60;;
4971;SDS011;2501;51.214;6.768;2023-05-09T00:38:30;21.03;;;14.70;;
4971;SDS011;2501;51.214;6.768;2023-05-09T00:40:58;21.87;;;15.10;;
4971;SDS011;2501;51.214;6.768;2023-05-09T00:43:26;20.23;;;14.43;;
4971;SDS011;2501;51.214;6.768;2023-05-09T00:45:55;22.33;;;15.63;;
4971;SDS011;2501;51.214;6.768;2023-05-09T00:48:26;21.52;;;15.57;;
4971;SDS011;2501;51.214;6.768;2023-05-09T00:50:54;22.55;;;15.68;;
4971;SDS011;2501;51.214;6.768;2023-05-09T00:53:23;20.80;;;15.90;;
4971;SDS011;2501;51.214;6.768;2023-05-09T00:55:52;18.92;;;15.40;;
4971;SDS011;2501;51.214;6.768;2023-05-09T00:58:23;26.20;;;16.50;;
4971;SDS011;2501;51.214;6.768;2023-05-09T01:00:52;22.90;;;16.93;;
4971;SDS011;2501;51.214;6.768;2023-05-09T01:03:20;25.53;;;17.70;;
4971;SDS011;2501;51.214;6.768;2023-05-09T01:05:54;25.85;;;16.40;;
4971;SDS011;2501;51.214;6.768;2023-05-09T01:08:33;25.25;;;16.42;;
4971;SDS011;2501;51.214;6.768;2023-05-09T01:11:11;25.05;;;16.83;;
4971;SDS011;2501;51.214;6.768;2023-05-09T01:13:48;23.35;;;16.20;;
4971;SDS011;2501;51.214;6.768;2023-05-09T01:16:25;24.55;;;17.50;;
4971;SDS011;2501;51.214;6.768;2023-05-09T01:19:00;23.77;;;17.27;;
4971;SDS011;2501;51.214;6.768;2023-05-09T01:21:39;24.67;;;18.08;;
4971;SDS011;2501;51.214;6.768;2023-05-09T01:24:24;24.40;;;17.13;;
4971;SDS011;2501;51.214;6.768;2023-05-09T01:27:26;24.53;;;17.40;;
4971;SDS011;2501;51.214;6.768;2023-05-09T01:30:04;23.48;;;16.45;;
4971;SDS011;2501;51.214;6.768;2023-05-09T01:32:35;22.07;;;16.43;;
4971;SDS011;2501;51.214;6.768;2023-05-09T01:35:06;24.93;;;16.60;;
4971;SDS011;2501;51.214;6.768;2023-05-09T01:37:41;23.38;;;17.15;;
4971;SDS011;2501;51.214;6.768;2023-05-09T01:40:12;26.48;;;17.38;;
4971;SDS011;2501;51.214;6.768;2023-05-09T01:42:43;21.42;;;17.38;;
4971;SDS011;2501;51.214;6.768;2023-05-09T01:45:17;26.67;;;17.20;;
4971;SDS011;2501;51.214;6.768;2023-05-09T01:47:47;30.87;;;17.73;;
4971;SDS011;2501;51.214;6.768;2023-05-09T01:50:17;28.80;;;18.35;;
4971;SDS011;2501;51.214;6.768;2023-05-09T01:52:47;30.85;;;19.40;;
4971;SDS011;2501;51.214;6.768;2023-05-09T01:55:19;41.35;;;20.90;;
4971;SDS011;2501;51.214;6.768;2023-05-09T01:57:49;39.20;;;21.40;;
4971;SDS011;2501;51.214;6.768;2023-05-09T02:00:22;45.85;;;24.52;;
4971;SDS011;2501;51.214;6.768;2023-05-09T02:02:52;47.63;;;24.52;;
4971;SDS011;2501;51.214;6.768;2023-05-09T02:05:21;45.38;;;24.30;;
4971;SDS011;2501;51.214;6.768;2023-05-09T02:07:54;51.25;;;26.63;;
4971;SDS011;2501;51.214;6.768;2023-05-09T02:10:24;52.00;;;24.93;;
4971;SDS011;2501;51.214;6.768;2023-05-09T02:12:54;62.25;;;27.80;;
4971;SDS011;2501;51.214;6.768;2023-05-09T02:15:25;61.05;;;29.15;;
4971;SDS011;2501;51.214;6.768;2023-05-09T02:17:56;65.22;;;28.58;;
4971;SDS011;2501;51.214;6.768;2023-05-09T02:20:24;72.65;;;29.80;;
4971;SDS011;2501;51.214;6.768;2023-05-09T02:22:52;64.47;;;29.77;;
4971;SDS011;2501;51.214;6.768;2023-05-09T02:25:21;60.30;;;28.85;;
4971;SDS011;2501;51.214;6.768;2023-05-09T02:27:50;70.63;;;29.07;;
4971;SDS011;2501;51.214;6.768;2023-05-09T02:30:20;56.35;;;28.10;;
4971;SDS011;2501;51.214;6.768;2023-05-09T02:32:54;59.15;;;29.10;;
4971;SDS011;2501;51.214;6.768;2023-05-09T02:35:26;59.42;;;27.23;;
4971;SDS011;2501;51.214;6.768;2023-05-09T02:37:56;58.80;;;28.60;;
4971;SDS011;2501;51.214;6.768;2023-05-09T02:40:26;61.10;;;28.20;;
4971;SDS011;2501;51.214;6.768;2023-05-09T02:42:56;59.85;;;28.02;;
4971;SDS011;2501;51.214;6.768;2023-05-09T02:45:27;59.20;;;28.17;;
4971;SDS011;2501;51.214;6.768;2023-05-09T02:47:56;60.30;;;27.92;;
4971;SDS011;2501;51.214;6.768;2023-05-09T02:50:24;54.53;;;27.23;;
4971;SDS011;2501;51.214;6.768;2023-05-09T02:52:53;57.42;;;27.60;;
4971;SDS011;2501;51.214;6.768;2023-05-09T02:55:22;60.75;;;28.38;;
4971;SDS011;2501;51.214;6.768;2023-05-09T02:57:50;60.25;;;27.83;;
4971;SDS011;2501;51.214;6.768;2023-05-09T03:00:19;64.15;;;29.15;;
4971;SDS011;2501;51.214;6.768;2023-05-09T03:02:52;63.38;;;28.95;;
4971;SDS011;2501;51.214;6.768;2023-05-09T03:05:20;60.72;;;28.88;;
4971;SDS011;2501;51.214;6.768;2023-05-09T03:07:49;65.22;;;30.40;;
4971;SDS011;2501;51.214;6.768;2023-05-09T03:10:18;66.50;;;29.27;;
4971;SDS011;2501;51.214;6.768;2023-05-09T03:12:46;70.25;;;30.77;;
4971;SDS011;2501;51.214;6.768;2023-05-09T03:15:15;71.70;;;31.73;;
4971;SDS011;2501;51.214;6.768;2023-05-09T03:17:43;61.95;;;28.92;;
4971;SDS011;2501;51.214;6.768;2023-05-09T03:20:14;61.40;;;29.55;;
4971;SDS011;2501;51.214;6.768;2023-05-09T03:22:42;63.58;;;29.40;;
4971;SDS011;2501;51.214;6.768;2023-05-09T03:25:12;70.80;;;30.27;;
4971;SDS011;2501;51.214;6.768;2023-05-09T03:27:41;68.35;;;29.92;;
4971;SDS011;2501;51.214;6.768;2023-05-09T03:30:09;58.72;;;28.17;;
4971;SDS011;2501;51.214;6.768;2023-05-09T03:32:39;61.65;;;28.85;;
4971;SDS011;2501;51.214;6.768;2023-05-09T03:35:07;58.67;;;27.67;;
4971;SDS011;2501;51.214;6.768;2023-05-09T03:37:38;60.45;;;27.40;;
4971;SDS011;2501;51.214;6.768;2023-05-09T03:40:07;53.53;;;26.75;;
4971;SDS011;2501;51.214;6.768;2023-05-09T03:42:36;52.50;;;25.63;;
4971;SDS011;2501;51.214;6.768;2023-05-09T03:45:05;49.23;;;24.53;;
4971;SDS011;2501;51.214;6.768;2023-05-09T03:47:34;60.35;;;25.98;;
4971;SDS011;2501;51.214;6.768;2023-05-09T03:50:03;50.90;;;24.58;;
4971;SDS011;2501;51.214;6.768;2023-05-09T03:52:32;54.40;;;26.80;;
4971;SDS011;2501;51.214;6.768;2023-05-09T03:55:04;61.58;;;26.25;;
4971;SDS011;2501;51.214;6.768;2023-05-09T03:57:33;47.83;;;25.25;;
4971;SDS011;2501;51.214;6.768;2023-05-09T04:00:02;57.65;;;27.00;;
4971;SDS011;2501;51.214;6.768;2023-05-09T04:02:32;57.05;;;26.45;;
4971;SDS011;2501;51.214;6.768;2023-05-09T04:05:00;53.40;;;25.27;;
4971;SDS011;2501;51.214;6.768;2023-05-09T04:07:29;50.00;;;25.95;;
4971;SDS011;2501;51.214;6.768;2023-05-09T04:09:57;49.92;;;25.75;;
4971;SDS011;2501;51.214;6.768;2023-05-09T04:12:29;56.70;;;26.23;;
4971;SDS011;2501;51.214;6.768;2023-05-09T04:14:57;53.08;;;26.48;;
4971;SDS011;2501;51.214;6.768;2023-05-09T04:17:26;51.92;;;26.02;;
4971;SDS011;2501;51.214;6.768;2023-05-09T04:19:54;50.88;;;25.30;;
4971;SDS011;2501;51.214;6.768;2023-05-09T04:22:23;43.00;;;23.60;;
4971;SDS011;2501;51.214;6.768;2023-05-09T04:24:51;51.17;;;24.52;;
4971;SDS011;2501;51.214;6.768;2023-05-09T04:27:20;49.37;;;24.30;;
4971;SDS011;2501;51.214;6.768;2023-05-09T04:29:51;41.87;;;22.10;;
4971;SDS011;2501;51.214;6.768;2023-05-09T04:32:19;44.63;;;22.52;;
4971;SDS011;2501;51.214;6.768;2023-05-09T04:34:48;44.10;;;22.85;;
4971;SDS011;2501;51.214;6.768;2023-05-09T04:37:16;48.58;;;23.33;;
4971;SDS011;2501;51.214;6.768;2023-05-09T04:39:45;43.22;;;22.55;;
4971;SDS011;2501;51.214;6.768;2023-05-09T04:42:13;49.85;;;24.50;;
4971;SDS011;2501;51.214;6.768;2023-05-09T04:44:41;49.28;;;24.85;;
4971;SDS011;2501;51.214;6.768;2023-05-09T04:47:13;65.53;;;26.88;;
4971;SDS011;2501;51.214;6.768;2023-05-09T04:49:41;55.97;;;24.97;;
4971;SDS011;2501;51.214;6.768;2023-05-09T04:52:09;60.03;;;26.03;;
4971;SDS011;2501;51.214;6.768;2023-05-09T04:54:38;50.45;;;25.00;;
4971;SDS011;2501;51.214;6.768;2023-05-09T04:57:06;51.30;;;25.13;;
4971;SDS011;2501;51.214;6.768;2023-05-09T04:59:35;47.75;;;24.10;;
4971;SDS011;2501;51.214;6.768;2023-05-09T05:02:03;49.50;;;24.05;;
4971;SDS011;2501;51.214;6.768;2023-05-09T05:04:34;42.20;;;22.83;;
4971;SDS011;2501;51.214;6.768;2023-05-09T05:07:03;38.38;;;22.55;;
4971;SDS011;2501;51.214;6.768;2023-05-09T05:09:32;41.47;;;24.30;;
4971;SDS011;2501;51.214;6.768;2023-05-09T05:12:00;35.27;;;22.57;;
4971;SDS011;2501;51.214;6.768;2023-05-09T05:14:31;32.72;;;22.58;;
4971;SDS011;2501;51.214;6.768;2023-05-09T05:16:59;41.30;;;23.75;;
4971;SDS011;2501;51.214;6.768;2023-05-09T05:19:28;39.05;;;23.15;;
4971;SDS011;2501;51.214;6.768;2023-05-09T05:21:59;34.00;;;22.65;;
4971;SDS011;2501;51.214;6.768;2023-05-09T05:24:27;37.70;;;22.33;;
4971;SDS011;2501;51.214;6.768;2023-05-09T05:26:56;35.70;;;23.30;;
4971;SDS011;2501;51.214;6.768;2023-05-09T05:29:24;30.20;;;22.65;;
4971;SDS011;2501;51.214;6.768;2023-05-09T05:31:52;35.10;;;22.87;;
4971;SDS011;2501;51.214;6.768;2023-05-09T05:34:21;34.25;;;22.10;;
4971;SDS011;2501;51.214;6.768;2023-05-09T05:36:49;29.40;;;20.75;;
4971;SDS011;2501;51.214;6.768;2023-05-09T05:39:20;31.55;;;21.83;;
4971;SDS011;2501;51.214;6.768;2023-05-09T05:41:49;30.52;;;21.92;;
4971;SDS011;2501;51.214;6.768;2023-05-09T05:44:18;36.13;;;22.83;;
4971;SDS011;2501;51.214;6.768;2023-05-09T05:46:46;36.85;;;22.30;;
4971;SDS011;2501;51.214;6.768;2023-05-09T05:49:14;31.10;;;21.60;;
4971;SDS011;2501;51.214;6.768;2023-05-09T05:51:43;34.22;;;23.35;;
4971;SDS011;2501;51.214;6.768;2023-05-09T05:54:11;29.65;;;22.08;;
4971;SDS011;2501;51.214;6.768;2023-05-09T05:56:42;28.40;;;21.33;;
4971;SDS011;2501;51.214;6.768;2023-05-09T05:59:11;35.58;;;22.70;;
4971;SDS011;2501;51.214;6.768;2023-05-09T06:01:40;35.77;;;22.73;;
4971;SDS011;2501;51.214;6.768;2023-05-09T06:04:08;30.97;;;22.10;;
4971;SDS011;2501;51.214;6.768;2023-05-09T06:06:37;38.17;;;23.40;;
4971;SDS011;2501;51.214;6.768;2023-05-09T06:09:05;36.50;;;23.60;;
4971;SDS011;2501;51.214;6.768;2023-05-09T06:11:34;31.20;;;22.40;;
4971;SDS011;2501;51.214;6.768;2023-05-09T06:14:05;32.30;;;21.70;;
4971;SDS011;2501;51.214;6.768;2023-05-09T06:16:34;36.92;;;22.83;;
4971;SDS011;2501;51.214;6.768;2023-05-09T06:19:02;32.20;;;22.15;;
4971;SDS011;2501;51.214;6.768;2023-05-09T06:21:31;37.15;;;24.10;;
4971;SDS011;2501;51.214;6.768;2023-05-09T06:24:00;35.53;;;23.90;;
4971;SDS011;2501;51.214;6.768;2023-05-09T06:26:29;35.33;;;23.00;;
4971;SDS011;2501;51.214;6.768;2023-05-09T06:28:57;31.02;;;21.10;;
4971;SDS011;2501;51.214;6.768;2023-05-09T06:31:28;31.77;;;23.23;;
4971;SDS011;2501;51.214;6.768;2023-05-09T06:33:59;31.90;;;21.70;;
4971;SDS011;2501;51.214;6.768;2023-05-09T06:36:28;34.20;;;21.80;;
4971;SDS011;2501;51.214;6.768;2023-05-09T06:38:57;33.35;;;21.92;;
4971;SDS011;2501;51.214;6.768;2023-05-09T06:41:26;30.77;;;21.42;;
4971;SDS011;2501;51.214;6.768;2023-05-09T06:43:54;33.15;;;22.15;;
4971;SDS011;2501;51.214;6.768;2023-05-09T06:46:23;34.25;;;22.02;;
4971;SDS011;2501;51.214;6.768;2023-05-09T06:48:54;33.58;;;21.90;;
4971;SDS011;2501;51.214;6.768;2023-05-09T06:51:22;33.80;;;20.98;;
4971;SDS011;2501;51.214;6.768;2023-05-09T06:53:51;35.33;;;23.98;;
4971;SDS011;2501;51.214;6.768;2023-05-09T06:56:19;33.85;;;22.45;;
4971;SDS011;2501;51.214;6.768;2023-05-09T06:58:50;29.80;;;21.15;;
4971;SDS011;2501;51.214;6.768;2023-05-09T07:01:18;31.38;;;22.35;;
4971;SDS011;2501;51.214;6.768;2023-05-09T07:03:46;31.85;;;22.83;;
4971;SDS011;2501;51.214;6.768;2023-05-09T07:06:18;29.52;;;20.92;;
4971;SDS011;2501;51.214;6.768;2023-05-09T07:08:47;34.20;;;20.77;;
4971;SDS011;2501;51.214;6.768;2023-05-09T07:11:16;31.27;;;20.55;;
4971;SDS011;2501;51.214;6.768;2023-05-09T07:13:45;30.90;;;20.58;;
4971;SDS011;2501;51.214;6.768;2023-05-09T07:16:13;27.60;;;19.13;;
4971;SDS011;2501;51.214;6.768;2023-05-09T07:18:42;30.48;;;20.83;;
4971;SDS011;2501;51.214;6.768;2023-05-09T07:21:11;30.07;;;19.27;;
4971;SDS011;2501;51.214;6.768;2023-05-09T07:23:42;29.17;;;19.50;;
4971;SDS011;2501;51.214;6.768;2023-05-09T07:26:10;28.52;;;19.10;;
4971;SDS011;2501;51.214;6.768;2023-05-09T07:28:39;33.13;;;19.15;;
4971;SDS011;2501;51.214;6.768;2023-05-09T07:31:07;29.25;;;18.40;;
4971;SDS011;2501;51.214;6.768;2023-05-09T07:33:36;30.95;;;19.02;;
4971;SDS011;2501;51.214;6.768;2023-05-09T07:36:04;29.27;;;19.23;;
4971;SDS011;2501;51.214;6.768;2023-05-09T07:38:37;26.58;;;17.48;;
4971;SDS011;2501;51.214;6.768;2023-05-09T07:41:09;26.20;;;16.90;;
4971;SDS011;2501;51.214;6.768;2023-05-09T07:43:38;24.35;;;15.32;;
4971;SDS011;2501;51.214;6.768;2023-05-09T07:46:06;21.40;;;14.38;;
4971;SDS011;2501;51.214;6.768;2023-05-09T07:48:35;20.30;;;14.25;;
4971;SDS011;2501;51.214;6.768;2023-05-09T07:51:03;20.33;;;14.93;;
4971;SDS011;2501;51.214;6.768;2023-05-09T07:53:32;21.90;;;15.13;;
4971;SDS011;2501;51.214;6.768;2023-05-09T07:56:00;21.33;;;14.25;;
4971;SDS011;2501;51.214;6.768;2023-05-09T07:58:33;22.40;;;15.50;;
4971;SDS011;2501;51.214;6.768;2023-05-09T08:01:01;23.00;;;15.37;;
4971;SDS011;2501;51.214;6.768;2023-05-09T08:03:30;18.33;;;14.47;;
4971;SDS011;2501;51.214;6.768;2023-05-09T08:05:58;19.93;;;13.83;;
4971;SDS011;2501;51.214;6.768;2023-05-09T08:08:27;19.67;;;13.17;;
4971;SDS011;2501;51.214;6.768;2023-05-09T08:10:55;20.80;;;13.97;;
4971;SDS011;2501;51.214;6.768;2023-05-09T08:13:24;19.95;;;13.48;;
4971;SDS011;2501;51.214;6.768;2023-05-09T08:15:55;17.77;;;11.70;;
4971;SDS011;2501;51.214;6.768;2023-05-09T08:18:24;15.88;;;11.25;;
4971;SDS011;2501;51.214;6.768;2023-05-09T08:20:52;15.30;;;10.73;;
4971;SDS011;2501;51.214;6.768;2023-05-09T08:23:22;17.05;;;10.60;;
4971;SDS011;2501;51.214;6.768;2023-05-09T08:25:51;12.77;;;9.60;;
4971;SDS011;2501;51.214;6.768;2023-05-09T08:28:21;12.25;;;10.20;;
4971;SDS011;2501;51.214;6.768;2023-05-09T08:30:55;11.00;;;9.43;;
4971;SDS011;2501;51.214;6.768;2023-05-09T08:33:23;10.10;;;8.00;;
4971;SDS011;2501;51.214;6.768;2023-05-09T08:35:52;11.07;;;7.55;;
4971;SDS011;2501;51.214;6.768;2023-05-09T08:38:21;13.35;;;6.38;;
4971;SDS011;2501;51.214;6.768;2023-05-09T08:40:50;9.52;;;5.50;;
4971;SDS011;2501;51.214;6.768;2023-05-09T08:43:18;7.43;;;5.65;;
4971;SDS011;2501;51.214;6.768;2023-05-09T08:45:50;5.30;;;4.80;;
4971;SDS011;2501;51.214;6.768;2023-05-09T08:48:24;10.50;;;5.45;;
4971;SDS011;2501;51.214;6.768;2023-05-09T08:50:53;9.43;;;4.53;;
4971;SDS011;2501;51.214;6.768;2023-05-09T08:53:23;9.38;;;4.72;;
4971;SDS011;2501;51.214;6.768;2023-05-09T08:55:51;6.97;;;4.50;;
4971;SDS011;2501;51.214;6.768;2023-05-09T08:58:20;8.13;;;5.00;;
4971;SDS011;2501;51.214;6.768;2023-05-09T09:00:49;6.22;;;5.05;;
4971;SDS011;2501;51.214;6.768;2023-05-09T09:03:17;5.60;;;4.97;;
4971;SDS011;2501;51.214;6.768;2023-05-09T09:05:49;8.20;;;4.80;;
4971;SDS011;2501;51.214;6.768;2023-05-09T09:08:20;11.02;;;4.10;;
4971;SDS011;2501;51.214;6.768;2023-05-09T09:10:49;4.70;;;3.92;;
4971;SDS011;2501;51.214;6.768;2023-05-09T09:13:17;5.77;;;4.90;;
4971;SDS011;2501;51.214;6.768;2023-05-09T09:15:48;7.10;;;4.78;;
4971;SDS011;2501;51.214;6.768;2023-05-09T09:18:21;4.70;;;3.67;;
4971;SDS011;2501;51.214;6.768;2023-05-09T09:20:58;5.82;;;3.70;;
4971;SDS011;2501;51.214;6.768;2023-05-09T09:23:31;3.72;;;3.42;;
4971;SDS011;2501;51.214;6.768;2023-05-09T09:26:01;4.65;;;4.25;;
4971;SDS011;2501;51.214;6.768;2023-05-09T09:28:30;5.20;;;4.00;;
4971;SDS011;2501;51.214;6.768;2023-05-09T09:30:59;5.20;;;3.47;;
4971;SDS011;2501;51.214;6.768;2023-05-09T09:33:28;4.00;;;3.40;;
4971;SDS011;2501;51.214;6.768;2023-05-09T09:35:59;4.37;;;3.90;;
4971;SDS011;2501;51.214;6.768;2023-05-09T09:38:27;9.73;;;4.00;;
4971;SDS011;2501;51.214;6.768;2023-05-09T09:41:07;3.90;;;3.60;;
4971;SDS011;2501;51.214;6.768;2023-05-09T09:43:42;5.72;;;3.80;;
4971;SDS011;2501;51.214;6.768;2023-05-09T09:46:12;4.50;;;4.05;;
4971;SDS011;2501;51.214;6.768;2023-05-09T09:48:45;4.70;;;3.90;;
4971;SDS011;2501;51.214;6.768;2023-05-09T09:51:21;4.50;;;4.03;;
4971;SDS011;2501;51.214;6.768;2023-05-09T09:53:54;6.20;;;4.50;;
4971;SDS011;2501;51.214;6.768;2023-05-09T09:56:27;3.70;;;3.47;;
4971;SDS011;2501;51.214;6.768;2023-05-09T09:59:08;5.15;;;3.63;;
4971;SDS011;2501;51.214;6.768;2023-05-09T10:01:52;4.60;;;3.20;;
4971;SDS011;2501;51.214;6.768;2023-05-09T10:04:22;3.65;;;3.40;;
4971;SDS011;2501;51.214;6.768;2023-05-09T10:06:54;6.00;;;3.83;;
4971;SDS011;2501;51.214;6.768;2023-05-09T10:09:24;10.70;;;4.30;;
4971;SDS011;2501;51.214;6.768;2023-05-09T10:11:54;4.70;;;3.60;;
4971;SDS011;2501;51.214;6.768;2023-05-09T10:14:24;5.10;;;3.40;;
4971;SDS011;2501;51.214;6.768;2023-05-09T10:16:54;6.15;;;3.75;;
4971;SDS011;2501;51.214;6.768;2023-05-09T10:19:24;5.47;;;3.30;;
4971;SDS011;2501;51.214;6.768;2023-05-09T10:21:57;6.38;;;3.55;;
4971;SDS011;2501;51.214;6.768;2023-05-09T10:24:32;8.43;;;4.20;;
4971;SDS011;2501;51.214;6.768;2023-05-09T10:27:03;4.75;;;3.55;;
4971;SDS011;2501;51.214;6.768;2023-05-09T10:29:37;6.72;;;4.00;;
4971;SDS011;2501;51.214;6.768;2023-05-09T10:32:11;5.75;;;4.47;;
4971;SDS011;2501;51.214;6.768;2023-05-09T10:34:45;3.70;;;3.40;;
4971;SDS011;2501;51.214;6.768;2023-05-09T10:37:21;7.55;;;3.60;;
4971;SDS011;2501;51.214;6.768;2023-05-09T10:39:50;8.77;;;5.00;;
4971;SDS011;2501;51.214;6.768;2023-05-09T10:42:19;5.05;;;4.07;;
4971;SDS011;2501;51.214;6.768;2023-05-09T10:44:50;4.65;;;3.90;;
4971;SDS011;2501;51.214;6.768;2023-05-09T10:47:19;3.33;;;3.00;;
4971;SDS011;2501;51.214;6.768;2023-05-09T10:49:48;5.90;;;3.87;;
4971;SDS011;2501;51.214;6.768;2023-05-09T10:52:17;4.40;;;3.60;;
4971;SDS011;2501;51.214;6.768;2023-05-09T10:54:59;4.88;;;3.60;;
4971;SDS011;2501;51.214;6.768;2023-05-09T10:57:29;4.05;;;3.63;;
4971;SDS011;2501;51.214;6.768;2023-05-09T10:59:58;4.28;;;3.85;;
4971;SDS011;2501;51.214;6.768;2023-05-09T11:02:27;4.88;;;3.50;;
4971;SDS011;2501;51.214;6.768;2023-05-09T11:05:13;3.35;;;3.05;;
4971;SDS011;2501;51.214;6.768;2023-05-09T11:07:43;8.80;;;3.10;;
4971;SDS011;2501;51.214;6.768;2023-05-09T11:10:16;3.80;;;3.50;;
4971;SDS011;2501;51.214;6.768;2023-05-09T11:12:51;5.30;;;3.50;;
4971;SDS011;2501;51.214;6.768;2023-05-09T11:15:21;5.85;;;3.05;;
4971;SDS011;2501;51.214;6.768;2023-05-09T11:18:03;6.13;;;3.90;;
4971;SDS011;2501;51.214;6.768;2023-05-09T11:20:32;6.13;;;4.40;;
4971;SDS011;2501;51.214;6.768;2023-05-09T11:23:02;4.90;;;4.50;;
4971;SDS011;2501;51.214;6.768;2023-05-09T11:25:34;4.40;;;4.00;;
4971;SDS011;2501;51.214;6.768;2023-05-09T11:28:02;4.20;;;3.65;;
4971;SDS011;2501;51.214;6.768;2023-05-09T11:30:35;8.90;;;4.35;;
4971;SDS011;2501;51.214;6.768;2023-05-09T11:33:06;9.43;;;4.27;;
4971;SDS011;2501;51.214;6.768;2023-05-09T11:38:42;4.55;;;3.08;;
4971;SDS011;2501;51.214;6.768;2023-05-09T11:41:14;4.35;;;3.10;;
4971;SDS011;2501;51.214;6.768;2023-05-09T11:43:43;4.30;;;3.40;;
4971;SDS011;2501;51.214;6.768;2023-05-09T11:46:11;4.80;;;3.00;;
4971;SDS011;2501;51.214;6.768;2023-05-09T11:48:40;9.67;;;4.10;;
4971;SDS011;2501;51.214;6.768;2023-05-09T11:51:14;8.00;;;3.47;;
4971;SDS011;2501;51.214;6.768;2023-05-09T11:53:43;6.57;;;3.83;;
4971;SDS011;2501;51.214;6.768;2023-05-09T11:56:15;5.25;;;3.70;;
4971;SDS011;2501;51.214;6.768;2023-05-09T11:58:44;2.80;;;2.60;;
4971;SDS011;2501;51.214;6.768;2023-05-09T12:01:12;7.25;;;3.95;;
4971;SDS011;2501;51.214;6.768;2023-05-09T12:03:42;2.97;;;2.70;;
4971;SDS011;2501;51.214;6.768;2023-05-09T12:06:14;4.05;;;3.25;;
4971;SDS011;2501;51.214;6.768;2023-05-09T12:08:44;4.07;;;3.10;;
4971;SDS011;2501;51.214;6.768;2023-05-09T12:11:15;4.60;;;3.40;;
4971;SDS011;2501;51.214;6.768;2023-05-09T12:13:44;9.40;;;3.75;;
4971;SDS011;2501;51.214;6.768;2023-05-09T12:16:14;3.40;;;3.10;;
4971;SDS011;2501;51.214;6.768;2023-05-09T12:18:44;3.60;;;3.25;;
4971;SDS011;2501;51.214;6.768;2023-05-09T12:21:13;4.55;;;3.85;;
4971;SDS011;2501;51.214;6.768;2023-05-09T12:23:42;6.32;;;3.60;;
4971;SDS011;2501;51.214;6.768;2023-05-09T12:26:11;2.87;;;2.67;;
4971;SDS011;2501;51.214;6.768;2023-05-09T12:28:42;3.80;;;3.50;;
4971;SDS011;2501;51.214;6.768;2023-05-09T12:31:11;4.05;;;3.20;;
4971;SDS011;2501;51.214;6.768;2023-05-09T12:33:39;6.00;;;3.40;;
4971;SDS011;2501;51.214;6.768;2023-05-09T12:36:09;10.80;;;6.53;;
4971;SDS011;2501;51.214;6.768;2023-05-09T12:38:40;3.80;;;2.87;;
4971;SDS011;2501;51.214;6.768;2023-05-09T12:41:18;9.07;;;3.30;;
4971;SDS011;2501;51.214;6.768;2023-05-09T12:43:51;3.15;;;2.95;;
4971;SDS011;2501;51.214;6.768;2023-05-09T12:46:19;3.30;;;2.70;;
4971;SDS011;2501;51.214;6.768;2023-05-09T12:48:49;4.85;;;2.90;;
4971;SDS011;2501;51.214;6.768;2023-05-09T12:51:17;10.23;;;6.75;;
4971;SDS011;2501;51.214;6.768;2023-05-09T12:53:47;3.92;;;3.40;;
4971;SDS011;2501;51.214;6.768;2023-05-09T12:56:16;8.00;;;3.55;;
4971;SDS011;2501;51.214;6.768;2023-05-09T12:58:47;4.70;;;3.00;;
4971;SDS011;2501;51.214;6.768;2023-05-09T13:01:19;3.83;;;3.33;;
4971;SDS011;2501;51.214;6.768;2023-05-09T13:03:50;10.65;;;4.57;;
4971;SDS011;2501;51.214;6.768;2023-05-09T13:06:20;9.50;;;4.85;;
4971;SDS011;2501;51.214;6.768;2023-05-09T13:08:58;7.87;;;5.00;;
4971;SDS011;2501;51.214;6.768;2023-05-09T13:11:29;16.10;;;5.43;;
4971;SDS011;2501;51.214;6.768;2023-05-09T13:13:58;19.17;;;6.20;;
4971;SDS011;2501;51.214;6.768;2023-05-09T13:16:29;18.17;;;7.75;;
4971;SDS011;2501;51.214;6.768;2023-05-09T13:18:58;9.48;;;5.90;;
4971;SDS011;2501;51.214;6.768;2023-05-09T13:21:29;7.47;;;6.07;;
4971;SDS011;2501;51.214;6.768;2023-05-09T13:23:57;8.30;;;6.35;;
4971;SDS011;2501;51.214;6.768;2023-05-09T13:26:26;7.95;;;6.20;;
4971;SDS011;2501;51.214;6.768;2023-05-09T13:28:55;16.98;;;6.75;;
4971;SDS011;2501;51.214;6.768;2023-05-09T13:31:24;10.03;;;7.30;;
4971;SDS011;2501;51.214;6.768;2023-05-09T13:33:55;7.10;;;6.30;;
4971;SDS011;2501;51.214;6.768;2023-05-09T13:36:23;9.52;;;7.05;;
4971;SDS011;2501;51.214;6.768;2023-05-09T13:38:52;9.70;;;6.80;;
4971;SDS011;2501;51.214;6.768;2023-05-09T13:41:20;13.10;;;7.75;;
4971;SDS011;2501;51.214;6.768;2023-05-09T13:43:49;12.68;;;7.30;;
4971;SDS011;2501;51.214;6.768;2023-05-09T13:46:18;11.48;;;7.60;;
4971;SDS011;2501;51.214;6.768;2023-05-09T13:48:46;8.80;;;7.60;;
4971;SDS011;2501;51.214;6.768;2023-05-09T13:51:17;10.23;;;6.90;;
4971;SDS011;2501;51.214;6.768;2023-05-09T13:53:46;10.35;;;6.70;;
4971;SDS011;2501;51.214;6.768;2023-05-09T13:56:14;11.45;;;7.93;;
4971;SDS011;2501;51.214;6.768;2023-05-09T13:58:43;9.93;;;7.35;;
4971;SDS011;2501;51.214;6.768;2023-05-09T14:01:12;10.50;;;7.35;;
4971;SDS011;2501;51.214;6.768;2023-05-09T14:03:40;11.02;;;7.57;;
4971;SDS011;2501;51.214;6.768;2023-05-09T14:06:08;11.43;;;8.05;;
4971;SDS011;2501;51.214;6.768;2023-05-09T14:08:40;9.23;;;8.20;;
4971;SDS011;2501;51.214;6.768;2023-05-09T14:11:08;11.83;;;8.30;;
4971;SDS011;2501;51.214;6.768;2023-05-09T14:13:37;10.80;;;8.15;;
4971;SDS011;2501;51.214;6.768;2023-05-09T14:16:06;9.68;;;8.23;;
4971;SDS011;2501;51.214;6.768;2023-05-09T14:18:35;10.83;;;7.37;;
4971;SDS011;2501;51.214;6.768;2023-05-09T14:21:03;10.05;;;8.30;;
4971;SDS011;2501;51.214;6.768;2023-05-09T14:23:33;8.90;;;8.00;;
4971;SDS011;2501;51.214;6.768;2023-05-09T14:26:04;11.02;;;8.50;;
4971;SDS011;2501;51.214;6.768;2023-05-09T14:28:32;9.95;;;7.47;;
4971;SDS011;2501;51.214;6.768;2023-05-09T14:31:01;10.25;;;8.52;;
4971;SDS011;2501;51.214;6.768;2023-05-09T14:33:30;11.57;;;7.95;;
4971;SDS011;2501;51.214;6.768;2023-05-09T14:36:00;9.80;;;8.50;;
4971;SDS011;2501;51.214;6.768;2023-05-09T14:38:30;12.20;;;8.80;;
4971;SDS011;2501;51.214;6.768;2023-05-09T14:40:59;14.27;;;10.47;;
4971;SDS011;2501;51.214;6.768;2023-05-09T14:43:31;18.05;;;12.13;;
4971;SDS011;2501;51.214;6.768;2023-05-09T14:45:59;23.73;;;17.08;;
4971;SDS011;2501;51.214;6.768;2023-05-09T14:48:28;27.05;;;20.30;;
4971;SDS011;2501;51.214;6.768;2023-05-09T14:50:59;25.27;;;18.42;;
4971;SDS011;2501;51.214;6.768;2023-05-09T14:53:27;28.30;;;18.13;;
4971;SDS011;2501;51.214;6.768;2023-05-09T14:55:59;16.35;;;12.52;;
4971;SDS011;2501;51.214;6.768;2023-05-09T14:58:30;18.35;;;15.32;;
4971;SDS011;2501;51.214;6.768;2023-05-09T15:00:59;32.83;;;23.67;;
4971;SDS011;2501;51.214;6.768;2023-05-09T15:03:28;35.63;;;25.10;;
4971;SDS011;2501;51.214;6.768;2023-05-09T15:05:56;56.07;;;39.53;;
4971;SDS011;2501;51.214;6.768;2023-05-09T15:08:25;63.95;;;43.38;;
4971;SDS011;2501;51.214;6.768;2023-05-09T15:10:53;59.83;;;42.20;;
4971;SDS011;2501;51.214;6.768;2023-05-09T15:13:22;58.25;;;42.67;;
4971;SDS011;2501;51.214;6.768;2023-05-09T15:15:53;59.28;;;43.22;;
4971;SDS011;2501;51.214;6.768;2023-05-09T15:18:21;58.88;;;41.42;;